Etusivu
METAR-TAF:

METAR-TAF

Lentoasemat :

Karlstad, Ruotsi

Leveyspiiri: 59-26-41N, Pituuspiiri: 013-20-15E, korkeus merenpinnasta: 107 m

Tämänhetkinen sää

Tämä raportti tehtiin 22 minuuttia sitten, kello 03.50 UTC
Tuuli 6 kn idästä/koillisesta
Lämpötila -1°C
Kosteus 93%
Ilmanpaine 995 hPa
Näkyvyys 10 km tai enemmän

METAR: ESOK 250350Z AUTO 06006KT 9999 FEW009/// BKN011/// OVC025/// M01/M02 Q0995

Aika: 05:12 (04:12 UTC)

Sääennuste

Tämä raportti tehtiin 42 minuuttia sitten, kello 03.30 UTC
Ennuste voimassa 25. päivästä klo 04 UTC - 25. päivään klo 12 UTC
Tuuli 10 kn idästä/koillisesta
Näkyvyys 10 km tai enemmän
ei pilviä alle 1500 m:ssä eikä cumulonimbus-pilviä
Todennäköisyys 40%
25. päivästä klo 04 UTC - 25. päivään klo 05 UTC
Hajonneita pilviä 1200 ft:n korkeudessa

TAF: ESOK 250330Z 2504/2512 07010KT CAVOK PROB40 2504/2505 BKN012

Säähavainnot ja -ennusteet yli 4000 lentoasemalta (METAR- ja TAF-raportit).

Käytössä olevat sääasemat on merkitty karttaan keltaisilla ja punaisilla pisteillä.

Aseta hiiri pisteen päälle nähdäksesi sääaseman nimen.

Klikkaa sitten nähdäksesi säähavainnot ja -ennusteet.

Kartan vaihtaminen: klikkaa mustalla rastilla varustettuja vihreitä pisteitä, niin voit zoomata sisään; viivalla varustettua vihreää pistettä, niin voit zoomata ulos tai vihreitä nuolia, niin pääset viereisille kartoille.


METAR-TAF: